createdAt,value
2019-04-03T00:00:45.839Z,1002.03
2019-04-03T00:01:45.855Z,1002.03
2019-04-03T00:02:45.860Z,1002.06
2019-04-03T00:03:45.791Z,1002.06
2019-04-03T00:04:45.953Z,1002.13
2019-04-03T00:05:45.828Z,1002.09
2019-04-03T00:06:45.842Z,1002.05
2019-04-03T00:07:45.860Z,1002.08
2019-04-03T00:09:45.900Z,1002.02
2019-04-03T00:10:45.937Z,1002.01
2019-04-03T00:11:45.933Z,1002.05
2019-04-03T00:12:46.066Z,1001.99
2019-04-03T00:13:45.968Z,1002.02
2019-04-03T00:14:45.992Z,1002.02
2019-04-03T00:15:46.012Z,1002
2019-04-03T00:16:46.103Z,1002.02
2019-04-03T00:17:46.335Z,1002.07
2019-04-03T00:18:47.392Z,1002.06
2019-04-03T00:19:47.614Z,1002.03
2019-04-03T00:20:46.734Z,1001.98
2019-04-03T00:21:46.119Z,1001.99
2019-04-03T00:22:46.778Z,1002.01
2019-04-03T00:23:46.150Z,1002.03
2019-04-03T00:25:46.188Z,1002.02
2019-04-03T00:26:46.210Z,1002.02
2019-04-03T00:27:46.228Z,1002.02
2019-04-03T00:28:46.240Z,1002.05
2019-04-03T00:29:46.263Z,1002.03
2019-04-03T00:30:46.276Z,1002.04
2019-04-03T00:31:46.300Z,1002.04
2019-04-03T00:32:46.313Z,1002.09
2019-04-03T00:33:46.335Z,1002.03
2019-04-03T00:34:46.363Z,1002.01
2019-04-03T00:35:46.371Z,1002.04
2019-04-03T00:36:46.544Z,1002.01
2019-04-03T00:37:46.403Z,1002.01
2019-04-03T00:38:46.528Z,1002.05
2019-04-03T00:40:46.464Z,1001.99
2019-04-03T00:41:46.476Z,1002
2019-04-03T00:42:46.499Z,1002
2019-04-03T00:43:46.513Z,1002.03
2019-04-03T00:44:46.537Z,1002.05
2019-04-03T00:45:46.549Z,1002.08
2019-04-03T00:46:46.571Z,1002.07
2019-04-03T00:47:46.658Z,1002.12
2019-04-03T00:48:46.604Z,1002.09
2019-04-03T00:49:46.622Z,1002.07
2019-04-03T00:50:46.645Z,1002.12
2019-04-03T00:51:46.662Z,1002.15
2019-04-03T00:52:46.681Z,1002.18
2019-04-03T00:53:46.694Z,1002.15
2019-04-03T00:54:46.712Z,1002.15
2019-04-03T00:55:46.731Z,1002.16
2019-04-03T00:56:46.754Z,1002.14
2019-04-03T00:57:46.771Z,1002.13
2019-04-03T00:58:46.785Z,1002.13
2019-04-03T00:59:46.808Z,1002.17
2019-04-03T01:00:46.820Z,1002.11
2019-04-03T01:01:46.843Z,1002.1
2019-04-03T01:02:46.858Z,1002.06
2019-04-03T01:03:46.965Z,1002.1
2019-04-03T01:04:46.898Z,1002.08
2019-04-03T01:05:46.917Z,1002.06
2019-04-03T01:06:47.028Z,1002.05
2019-04-03T01:07:46.948Z,1002.05
2019-04-03T01:08:46.975Z,1002.03
2019-04-03T01:09:47.019Z,1002.05
2019-04-03T01:10:47.007Z,1002.03
2019-04-03T01:12:47.050Z,1002.06
2019-04-03T01:13:47.057Z,1002
2019-04-03T01:14:47.074Z,1002
2019-04-03T01:15:47.097Z,1002.02
2019-04-03T01:16:47.111Z,1001.99
2019-04-03T01:17:47.129Z,1001.99
2019-04-03T01:18:47.154Z,1001.94
2019-04-03T01:19:47.164Z,1001.97
2019-04-03T01:20:47.187Z,1001.92
2019-04-03T01:21:47.206Z,1001.89
2019-04-03T01:22:47.223Z,1001.91
2019-04-03T01:23:47.237Z,1001.89
2019-04-03T01:24:47.255Z,1001.9
2019-04-03T01:25:47.278Z,1001.9
2019-04-03T01:26:47.291Z,1001.87
2019-04-03T01:28:47.332Z,1001.89
2019-04-03T01:29:47.345Z,1001.88
2019-04-03T01:30:47.368Z,1001.89
2019-04-03T01:31:47.382Z,1001.92
2019-04-03T01:32:47.405Z,1001.87
2019-04-03T01:33:47.417Z,1001.86
2019-04-03T01:34:47.959Z,1001.83
2019-04-03T01:35:47.933Z,1001.78
2019-04-03T01:36:48.129Z,1001.77
2019-04-03T01:37:47.802Z,1001.74
2019-04-03T01:38:47.893Z,1001.74
2019-04-03T01:39:48.828Z,1001.74
2019-04-03T01:40:48.888Z,1001.74
2019-04-03T01:41:47.566Z,1001.7
2019-04-03T01:42:47.580Z,1001.71
2019-04-03T01:44:47.620Z,1001.73
2019-04-03T01:45:47.640Z,1001.71
2019-04-03T01:46:47.803Z,1001.7
2019-04-03T01:47:47.694Z,1001.68
2019-04-03T01:48:47.688Z,1001.67
2019-04-03T01:49:47.743Z,1001.62
2019-04-03T01:50:47.730Z,1001.66
2019-04-03T01:51:47.751Z,1001.65
2019-04-03T01:52:47.909Z,1001.6
2019-04-03T01:53:47.784Z,1001.62
2019-04-03T01:54:48.011Z,1001.56
2019-04-03T01:55:47.818Z,1001.56
2019-04-03T01:56:47.996Z,1001.59
2019-04-03T01:57:47.858Z,1001.54
2019-04-03T01:58:47.872Z,1001.52
2019-04-03T02:00:47.929Z,1001.51
2019-04-03T02:01:47.922Z,1001.52
2019-04-03T02:02:47.939Z,1001.46
2019-04-03T02:03:47.957Z,1001.47
2019-04-03T02:04:47.980Z,1001.45
2019-04-03T02:05:48.150Z,1001.45
2019-04-03T02:06:48.011Z,1001.46
2019-04-03T02:07:48.037Z,1001.45
2019-04-03T02:08:48.047Z,1001.41
2019-04-03T02:09:48.068Z,1001.41
2019-04-03T02:10:48.872Z,1001.35
2019-04-03T02:11:49.285Z,1001.36
2019-04-03T02:12:50.360Z,1001.38
2019-04-03T02:13:48.136Z,1001.33
2019-04-03T02:15:48.285Z,1001.33
2019-04-03T02:16:48.275Z,1001.32
2019-04-03T02:17:48.213Z,1001.27
2019-04-03T02:18:48.227Z,1001.26
2019-04-03T02:19:48.249Z,1001.25
2019-04-03T02:20:48.265Z,1001.26
2019-04-03T02:21:48.300Z,1001.25
2019-04-03T02:22:48.305Z,1001.3
2019-04-03T02:23:48.316Z,1001.28
2019-04-03T02:24:48.333Z,1001.27
2019-04-03T02:25:48.358Z,1001.32
2019-04-03T02:26:48.370Z,1001.35
2019-04-03T02:27:48.391Z,1001.34
2019-04-03T02:28:48.594Z,1001.32
2019-04-03T02:29:48.423Z,1001.36
2019-04-03T02:30:48.441Z,1001.31
2019-04-03T02:31:51.653Z,1001.29
2019-04-03T02:32:48.524Z,1001.29
2019-04-03T02:33:48.573Z,1001.25
2019-04-03T02:34:48.559Z,1001.29
2019-04-03T02:35:48.684Z,1001.29
2019-04-03T02:36:48.552Z,1001.19
2019-04-03T02:37:50.032Z,1001.19
2019-04-03T02:38:48.840Z,1001.13
2019-04-03T02:39:48.606Z,1001.12
2019-04-03T02:40:48.619Z,1001.16
2019-04-03T02:41:48.643Z,1001.14
2019-04-03T02:42:48.667Z,1001.11
2019-04-03T02:43:48.677Z,1001.1
2019-04-03T02:44:50.892Z,1001.18
2019-04-03T02:45:48.707Z,1001.19
2019-04-03T02:47:48.817Z,1001.18
2019-04-03T02:48:48.899Z,1001.25
2019-04-03T02:49:48.777Z,1001.21
2019-04-03T02:50:48.800Z,1001.21
2019-04-03T02:51:51.450Z,1001.24
2019-04-03T02:52:48.852Z,1001.21
2019-04-03T02:53:48.852Z,1001.22
2019-04-03T02:54:48.871Z,1001.25
2019-04-03T02:55:48.893Z,1001.28
2019-04-03T02:56:49.099Z,1001.32
2019-04-03T02:57:49.782Z,1001.3
2019-04-03T02:58:49.109Z,1001.31
2019-04-03T02:59:48.969Z,1001.3
2019-04-03T03:00:49.416Z,1001.33
2019-04-03T03:01:49.113Z,1001.32
2019-04-03T03:03:50.028Z,1001.29
2019-04-03T03:04:49.339Z,1001.33
2019-04-03T03:05:49.066Z,1001.28
2019-04-03T03:06:49.139Z,1001.26
2019-04-03T03:07:49.099Z,1001.27
2019-04-03T03:08:49.113Z,1001.33
2019-04-03T03:09:49.226Z,1001.35
2019-04-03T03:10:51.538Z,1001.33
2019-04-03T03:11:49.330Z,1001.36
2019-04-03T03:12:49.193Z,1001.33
2019-04-03T03:13:49.201Z,1001.33
2019-04-03T03:14:49.319Z,1001.37
2019-04-03T03:15:49.237Z,1001.3
2019-04-03T03:16:50.551Z,1001.29
2019-04-03T03:17:49.280Z,1001.3
2019-04-03T03:19:49.310Z,1001.28
2019-04-03T03:20:49.324Z,1001.28
2019-04-03T03:21:49.348Z,1001.26
2019-04-03T03:22:50.181Z,1001.25
2019-04-03T03:23:49.382Z,1001.27
2019-04-03T03:24:49.560Z,1001.26
2019-04-03T03:25:49.425Z,1001.31
2019-04-03T03:26:49.434Z,1001.28
2019-04-03T03:27:49.710Z,1001.27
2019-04-03T03:28:49.481Z,1001.31
2019-04-03T03:29:49.481Z,1001.25
2019-04-03T03:31:03.877Z,1001.27
2019-04-03T03:32:10.574Z,1001.25
2019-04-03T03:33:21.481Z,1001.26
2019-04-03T03:34:05.023Z,1001.27
2019-04-03T03:35:11.487Z,1001.26
2019-04-03T03:36:03.645Z,1001.24
2019-04-03T03:37:03.547Z,1001.21
2019-04-03T03:38:04.353Z,1001.18
2019-04-03T03:39:03.086Z,1001.16
2019-04-03T03:41:03.116Z,1001.19
2019-04-03T03:42:03.025Z,1001.18
2019-04-03T03:43:04.963Z,1001.17
2019-04-03T03:44:03.059Z,1001.22
2019-04-03T03:45:03.317Z,1001.19
2019-04-03T03:46:03.195Z,1001.2
2019-04-03T03:47:03.114Z,1001.13
2019-04-03T03:48:03.372Z,1001.16
2019-04-03T03:49:03.145Z,1001.15
2019-04-03T03:50:03.167Z,1001.15
2019-04-03T03:51:03.201Z,1001.16
2019-04-03T03:52:05.048Z,1001.17
2019-04-03T03:53:03.218Z,1001.1
2019-04-03T03:54:03.234Z,1001.12
2019-04-03T03:55:03.248Z,1001.09
2019-04-03T03:57:04.712Z,1001.12
2019-04-03T03:58:03.303Z,1001.14
2019-04-03T03:59:03.316Z,1001.11
2019-04-03T04:00:03.380Z,1001.07
2019-04-03T04:01:03.357Z,1001.08
2019-04-03T04:02:05.562Z,1001.09
2019-04-03T04:03:03.407Z,1001.05
2019-04-03T04:04:03.409Z,1001.08
2019-04-03T04:05:03.420Z,1001.08
2019-04-03T04:06:03.441Z,1001.06
2019-04-03T04:07:04.429Z,1001.1
2019-04-03T04:08:03.478Z,1001.02
2019-04-03T04:09:03.489Z,1001.01
2019-04-03T04:10:03.515Z,1001
2019-04-03T04:12:05.918Z,1001.03
2019-04-03T04:13:03.689Z,1001.05
2019-04-03T04:14:03.944Z,1001.04
2019-04-03T04:15:03.599Z,1001.03
2019-04-03T04:16:04.807Z,1001.02
2019-04-03T04:17:03.790Z,1001.04
2019-04-03T04:18:03.912Z,1001.06
2019-04-03T04:19:03.669Z,1001.02
2019-04-03T04:20:05.440Z,1001.04
2019-04-03T04:21:03.904Z,1001.03
2019-04-03T04:22:03.720Z,1001.05
2019-04-03T04:23:03.735Z,1001.05
2019-04-03T04:24:03.749Z,1001.05
2019-04-03T04:25:03.979Z,1001.1
2019-04-03T04:26:03.788Z,1001.1
2019-04-03T04:27:03.815Z,1001.1
2019-04-03T04:28:03.825Z,1001.12
2019-04-03T04:29:03.836Z,1001.13
2019-04-03T04:30:03.982Z,1001.12
2019-04-03T04:31:04.101Z,1001.11
2019-04-03T04:32:03.892Z,1001.07
2019-04-03T04:33:04.101Z,1001.04
2019-04-03T04:34:04.140Z,1001.01
2019-04-03T04:35:03.939Z,1001.03
2019-04-03T04:36:03.957Z,1001.02
2019-04-03T04:37:04.047Z,1001.03
2019-04-03T04:38:04.050Z,1001.04
2019-04-03T04:39:04.014Z,1001.1
2019-04-03T04:40:04.026Z,1001.09
2019-04-03T04:41:04.048Z,1001.14
2019-04-03T04:42:04.694Z,1001.13
2019-04-03T04:44:04.099Z,1001.11
2019-04-03T04:45:04.117Z,1001.09
2019-04-03T04:46:04.135Z,1001.11
2019-04-03T04:47:04.146Z,1001.14
2019-04-03T04:48:04.168Z,1001.12
2019-04-03T04:49:04.184Z,1001.12
2019-04-03T04:50:04.274Z,1001.15
2019-04-03T04:51:04.216Z,1001.15
2019-04-03T04:52:04.526Z,1001.14
2019-04-03T04:53:04.254Z,1001.13
2019-04-03T04:54:04.271Z,1001.12
2019-04-03T04:55:04.284Z,1001.13
2019-04-03T04:56:04.769Z,1001.12
2019-04-03T04:57:04.319Z,1001.12
2019-04-03T04:58:04.863Z,1001.1
2019-04-03T05:00:04.372Z,1001.04
2019-04-03T05:01:04.569Z,1000.98
2019-04-03T05:02:04.415Z,1001
2019-04-03T05:03:04.429Z,1000.96
2019-04-03T05:04:04.441Z,1001
2019-04-03T05:05:04.457Z,1000.98
2019-04-03T05:06:04.474Z,1001
2019-04-03T05:07:04.497Z,1001
2019-04-03T05:08:04.534Z,1000.99
2019-04-03T05:09:04.532Z,1001.05
2019-04-03T05:10:05.817Z,1001.04
2019-04-03T05:11:05.522Z,1001.02
2019-04-03T05:12:04.578Z,1000.99
2019-04-03T05:13:04.596Z,1001
2019-04-03T05:14:04.627Z,1001.03
2019-04-03T05:16:04.907Z,1001.02
2019-04-03T05:17:04.666Z,1001.02
2019-04-03T05:18:04.690Z,1001.01
2019-04-03T05:19:09.933Z,1001.03
2019-04-03T05:20:04.720Z,1001.06
2019-04-03T05:21:04.740Z,1001.04
2019-04-03T05:22:04.773Z,1001
2019-04-03T05:23:04.874Z,1000.97
2019-04-03T05:24:11.339Z,1001.03
2019-04-03T05:25:05.074Z,1001.01
2019-04-03T05:26:04.827Z,1000.95
2019-04-03T05:27:07.283Z,1000.98
2019-04-03T05:28:04.879Z,1001
2019-04-03T05:29:05.058Z,1000.99
2019-04-03T05:30:05.776Z,1000.99
2019-04-03T05:32:04.935Z,1001.01
2019-04-03T05:33:04.995Z,1001.05
2019-04-03T05:34:04.963Z,1001.02
2019-04-03T05:35:04.986Z,1001.06
2019-04-03T05:36:04.999Z,1001.02
2019-04-03T05:37:05.148Z,1001.06
2019-04-03T05:38:05.034Z,1001.04
2019-04-03T05:39:05.057Z,1001.07
2019-04-03T05:40:05.074Z,1001.04
2019-04-03T05:41:05.086Z,1001.05
2019-04-03T05:42:05.104Z,1001.06
2019-04-03T05:43:05.123Z,1001.06
2019-04-03T05:44:05.145Z,1001.07
2019-04-03T05:45:05.158Z,1001.03
2019-04-03T05:47:07.309Z,1001.04
2019-04-03T05:48:05.472Z,1001.09
2019-04-03T05:49:05.238Z,1001.07
2019-04-03T05:50:05.251Z,1001.07
2019-04-03T05:51:05.264Z,1001.08
2019-04-03T05:52:05.607Z,1001.11
2019-04-03T05:53:06.020Z,1001.09
2019-04-03T05:54:05.896Z,1001.16
2019-04-03T05:55:05.335Z,1001.18
2019-04-03T05:56:05.357Z,1001.17
2019-04-03T05:57:05.375Z,1001.21
2019-04-03T05:58:05.497Z,1001.24
2019-04-03T05:59:05.407Z,1001.16
2019-04-03T06:00:06.769Z,1001.22
2019-04-03T06:01:06.843Z,1001.22
2019-04-03T06:02:14.533Z,1001.23
2019-04-03T06:03:05.740Z,1001.19
2019-04-03T06:04:05.503Z,1001.24
2019-04-03T06:05:06.568Z,1001.26
2019-04-03T06:06:05.537Z,1001.21
2019-04-03T06:07:05.690Z,1001.26
2019-04-03T06:08:05.568Z,1001.23
2019-04-03T06:09:05.799Z,1001.2
2019-04-03T06:10:05.608Z,1001.19
2019-04-03T06:11:07.767Z,1001.21
2019-04-03T06:12:08.292Z,1001.24
2019-04-03T06:13:06.250Z,1001.2
2019-04-03T06:14:08.190Z,1001.22
2019-04-03T06:15:05.709Z,1001.16
2019-04-03T06:16:06.016Z,1001.19
2019-04-03T06:17:05.741Z,1001.17
2019-04-03T06:19:06.743Z,1001.11
2019-04-03T06:20:05.792Z,1001.11
2019-04-03T06:21:05.810Z,1001.08
2019-04-03T06:22:05.834Z,1001.13
2019-04-03T06:23:05.852Z,1001.13
2019-04-03T06:24:05.872Z,1001.11
2019-04-03T06:25:05.912Z,1001.13
2019-04-03T06:26:05.910Z,1001.15
2019-04-03T06:27:06.000Z,1001.18
2019-04-03T06:28:05.978Z,1001.2
2019-04-03T06:29:07.610Z,1001.22
2019-04-03T06:30:06.272Z,1001.24
2019-04-03T06:31:08.051Z,1001.23
2019-04-03T06:32:06.459Z,1001.25
2019-04-03T06:33:06.046Z,1001.28
2019-04-03T06:35:06.314Z,1001.36
2019-04-03T06:36:06.381Z,1001.5
2019-04-03T06:37:06.142Z,1001.49
2019-04-03T06:38:06.148Z,1001.39
2019-04-03T06:39:06.478Z,1001.27
2019-04-03T06:40:06.320Z,1001.26
2019-04-03T06:41:08.343Z,1001.32
2019-04-03T06:42:06.232Z,1001.21
2019-04-03T06:43:06.425Z,1001.23
2019-04-03T06:44:06.268Z,1001.18
2019-04-03T06:45:06.297Z,1001.11
2019-04-03T06:46:06.312Z,1001.11
2019-04-03T06:47:06.338Z,1001.09
2019-04-03T06:48:06.365Z,1001.13
2019-04-03T06:49:08.454Z,1001.24
2019-04-03T06:51:06.415Z,1001.46
2019-04-03T06:52:06.524Z,1001.37
2019-04-03T06:53:06.462Z,1001.5
2019-04-03T06:54:07.778Z,1001.57
2019-04-03T06:55:06.508Z,1001.53
2019-04-03T06:56:08.600Z,1001.54
2019-04-03T06:57:06.575Z,1001.5
2019-04-03T06:58:06.569Z,1001.54
2019-04-03T06:59:06.589Z,1001.58
2019-04-03T07:00:06.614Z,1001.47
2019-04-03T07:01:06.632Z,1001.46
2019-04-03T07:02:06.658Z,1001.47
2019-04-03T07:03:06.678Z,1001.52
2019-04-03T07:04:07.205Z,1001.53
2019-04-03T07:05:09.528Z,1001.31
2019-04-03T07:07:07.079Z,1001.48
2019-04-03T07:08:06.797Z,1001.48
2019-04-03T07:09:06.822Z,1001.52
2019-04-03T07:10:08.764Z,1001.49
2019-04-03T07:11:06.868Z,1001.43
2019-04-03T07:12:06.884Z,1001.43
2019-04-03T07:13:06.912Z,1001.38
2019-04-03T07:14:06.932Z,1001.34
2019-04-03T07:15:06.965Z,1001.34
2019-04-03T07:16:07.076Z,1001.36
2019-04-03T07:17:07.048Z,1001.35
2019-04-03T07:18:07.285Z,1001.34
2019-04-03T07:19:08.125Z,1001.37
2019-04-03T07:20:14.091Z,1001.35
2019-04-03T07:22:07.128Z,1001.5
2019-04-03T07:23:07.286Z,1001.45
2019-04-03T07:24:07.174Z,1001.42
2019-04-03T07:25:07.194Z,1001.47
2019-04-03T07:26:07.441Z,1001.48
2019-04-03T07:27:07.252Z,1001.44
2019-04-03T07:28:08.851Z,1001.49
2019-04-03T07:29:07.291Z,1001.54
2019-04-03T07:30:07.314Z,1001.57
2019-04-03T07:31:07.414Z,1001.52
2019-04-03T07:32:07.365Z,1001.53
2019-04-03T07:33:07.457Z,1001.52
2019-04-03T07:34:07.418Z,1001.48
2019-04-03T07:35:09.699Z,1001.56
2019-04-03T07:36:08.720Z,1001.57
2019-04-03T07:37:07.484Z,1001.53
2019-04-03T07:38:07.513Z,1001.53
2019-04-03T07:39:10.038Z,1001.51
2019-04-03T07:40:07.565Z,1001.52
2019-04-03T07:41:07.586Z,1001.51
2019-04-03T07:42:07.612Z,1001.42
2019-04-03T07:43:07.635Z,1001.45
2019-04-03T07:44:07.660Z,1001.41
2019-04-03T07:45:07.821Z,1001.47
2019-04-03T07:46:07.705Z,1001.42
2019-04-03T07:47:07.731Z,1001.42
2019-04-03T07:48:07.815Z,1001.39
2019-04-03T07:49:08.930Z,1001.38
2019-04-03T07:50:10.259Z,1001.39
2019-04-03T07:51:07.834Z,1001.4
2019-04-03T07:52:07.896Z,1001.45
2019-04-03T07:54:07.905Z,1001.5
2019-04-03T07:55:07.976Z,1001.51
2019-04-03T07:56:07.957Z,1001.52
2019-04-03T07:57:09.995Z,1001.53
2019-04-03T07:58:08.003Z,1001.49
2019-04-03T07:59:08.341Z,1001.47
2019-04-03T08:00:08.052Z,1001.44
2019-04-03T08:01:10.489Z,1001.46
2019-04-03T08:02:08.105Z,1001.39
2019-04-03T08:03:08.188Z,1001.37
2019-04-03T08:04:08.157Z,1001.39
2019-04-03T08:05:08.269Z,1001.31
2019-04-03T08:06:08.213Z,1001.33
2019-04-03T08:07:08.233Z,1001.31
2019-04-03T08:08:08.482Z,1001.35
2019-04-03T08:10:08.304Z,1001.27
2019-04-03T08:11:08.329Z,1001.27
2019-04-03T08:12:08.359Z,1001.24
2019-04-03T08:13:08.526Z,1001.27
2019-04-03T08:14:08.992Z,1001.23
2019-04-03T08:15:08.429Z,1001.15
2019-04-03T08:16:08.602Z,1001.11
2019-04-03T08:17:08.782Z,1001.15
2019-04-03T08:18:08.504Z,1001.17
2019-04-03T08:19:08.805Z,1001.1
2019-04-03T08:20:08.559Z,1001.13
2019-04-03T08:21:08.588Z,1001.14
2019-04-03T08:22:08.604Z,1001.14
2019-04-03T08:23:08.635Z,1001.15
2019-04-03T08:24:08.743Z,1001.17
2019-04-03T08:26:11.303Z,1001.15
2019-04-03T08:27:08.929Z,1001.15
2019-04-03T08:28:08.760Z,1001.13
2019-04-03T08:29:08.780Z,1001.16
2019-04-03T08:30:08.892Z,1001.1
2019-04-03T08:31:11.441Z,1001.11
2019-04-03T08:32:08.855Z,1001.07
2019-04-03T08:33:15.647Z,1001.08
2019-04-03T08:34:15.443Z,1001.07
2019-04-03T08:35:19.136Z,1001.06
2019-04-03T08:36:08.997Z,1001.06
2019-04-03T08:37:09.989Z,1001.04
2019-04-03T08:38:09.400Z,1001.09
2019-04-03T08:39:09.037Z,1001.08
2019-04-03T08:40:09.100Z,1001.06
2019-04-03T08:42:09.202Z,1001.07
2019-04-03T08:43:09.135Z,1001.06
2019-04-03T08:44:09.306Z,1001.11
2019-04-03T08:45:09.309Z,1001.11
2019-04-03T08:46:10.499Z,1001.08
2019-04-03T08:47:09.235Z,1001.05
2019-04-03T08:48:09.268Z,1001.01
2019-04-03T08:49:09.288Z,1001.04
2019-04-03T08:50:09.318Z,1001.04
2019-04-03T08:51:09.366Z,1001.05
2019-04-03T08:52:09.368Z,1001.02
2019-04-03T08:53:09.395Z,1000.98
2019-04-03T08:54:10.602Z,1001.01
2019-04-03T08:55:12.626Z,1000.95
2019-04-03T08:57:09.499Z,1000.91
2019-04-03T08:58:09.521Z,1000.92
2019-04-03T08:59:12.465Z,1000.88
2019-04-03T09:00:09.578Z,1000.86
2019-04-03T09:01:10.550Z,1000.84
2019-04-03T09:02:12.609Z,1000.83
2019-04-03T09:03:09.656Z,1000.8
2019-04-03T09:04:09.677Z,1000.87
2019-04-03T09:05:09.708Z,1000.79
2019-04-03T09:06:09.729Z,1000.78
2019-04-03T09:07:09.920Z,1000.79
2019-04-03T09:08:09.781Z,1000.76
2019-04-03T09:09:09.810Z,1000.81
2019-04-03T09:10:09.888Z,1000.76
2019-04-03T09:11:09.862Z,1000.76
2019-04-03T09:12:09.889Z,1000.76
2019-04-03T09:13:17.270Z,1000.76
2019-04-03T09:14:09.942Z,1000.76
2019-04-03T09:15:10.084Z,1000.77
2019-04-03T09:16:10.917Z,1000.73
2019-04-03T09:17:10.019Z,1000.74
2019-04-03T09:18:10.041Z,1000.71
2019-04-03T09:19:10.855Z,1000.72
2019-04-03T09:20:12.335Z,1000.71
2019-04-03T09:21:10.123Z,1000.71
2019-04-03T09:22:10.145Z,1000.7
2019-04-03T09:23:10.175Z,1000.65
2019-04-03T09:24:10.308Z,1000.67
2019-04-03T09:25:13.021Z,1000.67
2019-04-03T09:26:10.252Z,1000.6
2019-04-03T09:27:10.595Z,1000.61
2019-04-03T09:29:12.407Z,1000.66
2019-04-03T09:30:10.585Z,1000.57
2019-04-03T09:31:10.402Z,1000.58
2019-04-03T09:32:10.405Z,1000.61
2019-04-03T09:33:10.437Z,1000.58
2019-04-03T09:34:10.457Z,1000.54
2019-04-03T09:35:10.487Z,1000.52
2019-04-03T09:36:10.516Z,1000.51
2019-04-03T09:37:10.741Z,1000.5
2019-04-03T09:38:10.957Z,1000.46
2019-04-03T09:39:12.778Z,1000.46
2019-04-03T09:40:10.617Z,1000.52
2019-04-03T09:41:11.006Z,1000.53
2019-04-03T09:42:10.668Z,1000.43
2019-04-03T09:43:10.701Z,1000.41
2019-04-03T09:45:10.746Z,1000.39
2019-04-03T09:46:10.767Z,1000.4
2019-04-03T09:47:10.793Z,1000.36
2019-04-03T09:48:11.919Z,1000.34
2019-04-03T09:49:10.848Z,1000.32
2019-04-03T09:50:11.890Z,1000.29
2019-04-03T09:51:10.896Z,1000.33
2019-04-03T09:52:10.925Z,1000.25
2019-04-03T09:53:10.947Z,1000.18
2019-04-03T09:54:10.981Z,1000.12
2019-04-03T09:55:11.000Z,1000.13
2019-04-03T09:56:11.032Z,1000.12
2019-04-03T09:57:11.051Z,1000.14
2019-04-03T09:58:11.079Z,1000.11
2019-04-03T09:59:11.109Z,1000.02
2019-04-03T10:01:13.261Z,1000.05
2019-04-03T10:02:11.347Z,1000.01
2019-04-03T10:03:11.206Z,1000.01
2019-04-03T10:04:11.238Z,1000
2019-04-03T10:05:11.620Z,999.99
2019-04-03T10:06:11.289Z,999.95
2019-04-03T10:07:11.878Z,1000.01
2019-04-03T10:08:11.405Z,1000
2019-04-03T10:09:11.980Z,999.98
2019-04-03T10:10:11.766Z,999.95
2019-04-03T10:11:14.670Z,999.95
2019-04-03T10:12:11.440Z,999.93
2019-04-03T10:13:11.471Z,999.92
2019-04-03T10:14:11.649Z,999.89
2019-04-03T10:15:11.769Z,999.93
2019-04-03T10:17:11.606Z,999.88
2019-04-03T10:18:11.984Z,999.89
2019-04-03T10:19:13.140Z,999.89
2019-04-03T10:20:11.655Z,999.93
2019-04-03T10:21:11.680Z,999.9
2019-04-03T10:22:11.901Z,999.88
2019-04-03T10:23:11.971Z,999.84
2019-04-03T10:24:11.761Z,999.84
2019-04-03T10:25:11.781Z,999.84
2019-04-03T10:26:12.180Z,999.82
2019-04-03T10:27:11.985Z,999.81
2019-04-03T10:28:13.502Z,999.79
2019-04-03T10:29:12.004Z,999.78
2019-04-03T10:30:12.158Z,999.74
2019-04-03T10:32:11.965Z,999.72
2019-04-03T10:33:12.057Z,999.7
2019-04-03T10:34:13.607Z,999.63
2019-04-03T10:35:12.043Z,999.63
2019-04-03T10:36:12.617Z,999.63
2019-04-03T10:37:14.395Z,999.66
2019-04-03T10:38:12.125Z,999.6
2019-04-03T10:39:12.471Z,999.59
2019-04-03T10:40:12.176Z,999.66
2019-04-03T10:41:12.197Z,999.57
2019-04-03T10:42:12.489Z,999.61
2019-04-03T10:43:12.250Z,999.62
2019-04-03T10:44:12.278Z,999.6
2019-04-03T10:45:12.507Z,999.62
2019-04-03T10:46:12.326Z,999.6
2019-04-03T10:47:12.752Z,999.62
2019-04-03T10:48:12.377Z,999.59
2019-04-03T10:49:12.672Z,999.57
2019-04-03T10:50:12.429Z,999.56
2019-04-03T10:51:12.464Z,999.53
2019-04-03T10:52:13.253Z,999.52
2019-04-03T10:53:12.503Z,999.48
2019-04-03T10:54:12.533Z,999.49
2019-04-03T10:55:12.560Z,999.48
2019-04-03T10:56:12.587Z,999.51
2019-04-03T10:57:12.824Z,999.46
2019-04-03T10:58:12.631Z,999.44
2019-04-03T10:59:13.810Z,999.48
2019-04-03T11:00:12.680Z,999.43
2019-04-03T11:01:12.710Z,999.47
2019-04-03T11:02:12.987Z,999.45
2019-04-03T11:04:12.868Z,999.32
2019-04-03T11:05:12.877Z,999.37
2019-04-03T11:06:12.830Z,999.29
2019-04-03T11:07:12.860Z,999.32
2019-04-03T11:08:12.886Z,999.23
2019-04-03T11:09:12.916Z,999.28
2019-04-03T11:10:13.092Z,999.3
2019-04-03T11:11:12.961Z,999.32
2019-04-03T11:12:12.981Z,999.3
2019-04-03T11:13:13.349Z,999.31
2019-04-03T11:14:13.139Z,999.31
2019-04-03T11:15:13.061Z,999.35
2019-04-03T11:16:14.672Z,999.29
2019-04-03T11:17:13.358Z,999.26
2019-04-03T11:18:13.138Z,999.27
2019-04-03T11:20:13.179Z,999.22
2019-04-03T11:21:13.515Z,999.18
2019-04-03T11:22:13.814Z,999.19
2019-04-03T11:23:13.261Z,999.19
2019-04-03T11:24:13.413Z,999.16
2019-04-03T11:25:15.119Z,999.13
2019-04-03T11:26:13.349Z,999.14
2019-04-03T11:27:13.363Z,999.19
2019-04-03T11:28:13.998Z,999.15
2019-04-03T11:29:13.822Z,999.08
2019-04-03T11:30:16.744Z,999.1
2019-04-03T11:31:24.385Z,999.05
2019-04-03T11:32:13.475Z,999.01
2019-04-03T11:33:14.076Z,999
2019-04-03T11:34:15.183Z,999.04
2019-04-03T11:36:13.574Z,999.01
2019-04-03T11:37:13.873Z,999.02
2019-04-03T11:38:17.486Z,999.05
2019-04-03T11:39:15.766Z,998.97
2019-04-03T11:40:13.846Z,998.99
2019-04-03T11:41:18.264Z,998.94
2019-04-03T11:42:22.649Z,998.95
2019-04-03T11:43:13.745Z,998.93
2019-04-03T11:44:13.887Z,998.9
2019-04-03T11:45:13.795Z,998.92
2019-04-03T11:46:13.884Z,998.93
2019-04-03T11:47:14.114Z,998.9
2019-04-03T11:48:14.843Z,998.81
2019-04-03T11:49:13.893Z,998.88
2019-04-03T11:50:13.917Z,998.84
2019-04-03T11:52:14.141Z,998.83
2019-04-03T11:53:13.994Z,998.84
2019-04-03T11:54:14.119Z,998.8
2019-04-03T11:55:14.039Z,998.78
2019-04-03T11:56:14.524Z,998.73
2019-04-03T11:57:16.293Z,998.83
2019-04-03T11:58:14.112Z,998.7
2019-04-03T11:59:14.146Z,998.73
2019-04-03T12:00:14.354Z,998.7
2019-04-03T12:01:15.870Z,998.63
2019-04-03T12:02:14.211Z,998.69
2019-04-03T12:03:14.303Z,998.7
2019-04-03T12:04:14.260Z,998.65
2019-04-03T12:05:15.768Z,998.6
2019-04-03T12:07:14.340Z,998.57
2019-04-03T12:08:14.362Z,998.56
2019-04-03T12:09:14.387Z,998.56
2019-04-03T12:10:14.629Z,998.51
2019-04-03T12:11:14.711Z,998.56
2019-04-03T12:12:14.519Z,998.54
2019-04-03T12:13:14.926Z,998.53
2019-04-03T12:14:14.954Z,998.55
2019-04-03T12:15:16.170Z,998.49
2019-04-03T12:16:14.921Z,998.52
2019-04-03T12:17:14.612Z,998.49
2019-04-03T12:18:14.604Z,998.48
2019-04-03T12:19:15.011Z,998.46
2019-04-03T12:20:15.780Z,998.39
2019-04-03T12:21:16.449Z,998.44
2019-04-03T12:22:14.701Z,998.49
2019-04-03T12:23:14.921Z,998.47
2019-04-03T12:24:15.037Z,998.43
2019-04-03T12:25:15.154Z,998.44
2019-04-03T12:26:14.794Z,998.34
2019-04-03T12:27:14.969Z,998.43
2019-04-03T12:28:17.214Z,998.36
2019-04-03T12:29:14.872Z,998.44
2019-04-03T12:30:15.099Z,998.41
2019-04-03T12:31:14.921Z,998.42
2019-04-03T12:32:15.039Z,998.44
2019-04-03T12:33:14.968Z,998.38
2019-04-03T12:34:15.073Z,998.38
2019-04-03T12:35:15.012Z,998.35
2019-04-03T12:36:15.074Z,998.34
2019-04-03T12:37:16.057Z,998.27
2019-04-03T12:39:15.412Z,998.29
2019-04-03T12:40:15.137Z,998.31
2019-04-03T12:41:15.534Z,998.28
2019-04-03T12:42:16.676Z,998.25
2019-04-03T12:43:15.412Z,998.3
2019-04-03T12:44:15.565Z,998.28
2019-04-03T12:45:17.854Z,998.29
2019-04-03T12:46:15.280Z,998.29
2019-04-03T12:47:15.300Z,998.31
2019-04-03T12:48:17.315Z,998.33
2019-04-03T12:49:15.348Z,998.26
2019-04-03T12:50:15.378Z,998.28
2019-04-03T12:51:15.454Z,998.25
2019-04-03T12:52:15.424Z,998.28
2019-04-03T12:53:16.404Z,998.31
2019-04-03T12:55:15.496Z,998.28